Acorn Park, Oregon
Current Conditions -  °F | °C
As of 8:54 PM on Saturday 25 Oct 2014 (Local Time) from KEUG Reporting Station
Overcast Overcast  
Wind Chill: 52°   Ceiling: 4300
Heat Index: 52°   Visibility: 9mi
Dew Point: 50°   Wind: 10mph
Humidity: 93%   Direction: 190°S
Pressure: 29.93"   Gusts: NA
Location:  44.0318°N, 123.235°W
Report Text: KEUG 260354Z 19009KT 9SM SCT033 BKN043 OVC055 11/10 A2993 RMK AO2 RAE05 SLP135 P0001 T01110100 $
Loading
Personal Weather Stations






























Interactive Weather Map
Tropical Storm Tracking
New forecast layout! Learn more

10-Day Weather Forecast

Advertisements
Track Severe Weather on mobile